Time,TemperatureF,DewpointF,PressureIn,WindDirection,WindDirectionDegrees,WindSpeedMPH,WindSpeedGustMPH,Humidity,HourlyPrecipIn,Conditions,Clouds,dailyrainin,SoftwareType,DateUTC
2013-03-31 00:00:00,46.3,34.1,30.14,North,355,0.0,1.3,62,0.00,,,0.00,WSDL version 420,2013-03-31 04:00:00,
2013-03-31 00:05:00,46.2,34.4,30.14,NNE,23,0.0,1.3,64,0.00,,,0.00,WSDL version 420,2013-03-31 04:05:00,
2013-03-31 00:10:00,46.2,34.8,30.14,NNE,23,0.0,0.0,65,0.00,,,0.00,WSDL version 420,2013-03-31 04:10:00,
2013-03-31 00:15:00,46.1,35.2,30.14,NNW,340,0.0,0.0,65,0.00,,,0.00,WSDL version 420,2013-03-31 04:15:00,
2013-03-31 00:20:00,46.0,35.1,30.14,NW,304,0.8,2.2,66,0.00,,,0.00,WSDL version 420,2013-03-31 04:20:00,
2013-03-31 00:25:00,46.0,35.9,30.13,NW,307,0.1,2.2,68,0.00,,,0.00,WSDL version 420,2013-03-31 04:25:00,
2013-03-31 00:30:00,46.0,35.6,30.14,SW,217,0.0,1.6,66,0.00,,,0.00,WSDL version 420,2013-03-31 04:30:00,
2013-03-31 00:35:00,46.0,35.7,30.14,SSE,165,0.0,0.9,68,0.00,,,0.00,WSDL version 420,2013-03-31 04:35:00,
2013-03-31 00:40:00,46.1,36.1,30.14,West,260,0.0,0.9,68,0.00,,,0.00,WSDL version 420,2013-03-31 04:40:00,
2013-03-31 00:45:00,46.0,36.1,30.14,NW,323,0.0,0.0,68,0.00,,,0.00,WSDL version 420,2013-03-31 04:45:00,
2013-03-31 00:50:00,46.0,36.1,30.14,NNW,328,0.0,0.9,68,0.00,,,0.00,WSDL version 420,2013-03-31 04:50:00,
2013-03-31 00:55:00,46.3,36.5,30.14,ESE,110,1.9,2.7,68,0.00,,,0.00,WSDL version 420,2013-03-31 04:55:00,
2013-03-31 01:00:00,46.5,37.2,30.14,WNW,290,0.6,2.7,72,0.00,,,0.00,WSDL version 420,2013-03-31 05:00:00,
2013-03-31 01:05:00,47.0,37.2,30.13,SW,233,3.9,6.3,69,0.00,,,0.00,WSDL version 420,2013-03-31 05:05:00,
2013-03-31 01:10:00,46.9,37.2,30.13,West,275,2.7,6.3,69,0.00,,,0.00,WSDL version 420,2013-03-31 05:10:00,
2013-03-31 01:15:00,47.1,37.1,30.13,WNW,293,1.3,5.4,69,0.00,,,0.00,WSDL version 420,2013-03-31 05:15:00,
2013-03-31 01:20:00,47.2,37.1,30.10,West,263,0.6,4.7,68,0.04,,,0.04,WSDL version 420,2013-03-31 05:20:00,
2013-03-31 01:25:00,47.1,37.1,30.10,NW,315,1.6,4.0,68,0.04,,,0.04,WSDL version 420,2013-03-31 05:25:00,
2013-03-31 01:30:00,47.0,37.5,30.10,WNW,298,2.5,4.3,70,0.04,,,0.04,WSDL version 420,2013-03-31 05:30:00,
2013-03-31 01:35:00,46.9,37.9,30.10,NW,321,1.7,6.3,72,0.04,,,0.04,WSDL version 420,2013-03-31 05:35:00,
2013-03-31 01:40:00,46.6,37.9,30.10,North,357,1.0,6.3,73,0.04,,,0.04,WSDL version 420,2013-03-31 05:40:00,
2013-03-31 01:45:00,46.3,38.3,30.10,NW,323,0.0,3.4,74,0.04,,,0.04,WSDL version 420,2013-03-31 05:45:00,
2013-03-31 01:50:00,46.3,38.9,30.10,WSW,245,1.2,2.7,77,0.04,,,0.04,WSDL version 420,2013-03-31 05:50:00,
2013-03-31 01:55:00,46.0,38.6,30.10,ENE,62,0.0,2.7,75,0.04,,,0.04,WSDL version 420,2013-03-31 05:55:00,
2013-03-31 02:00:00,45.7,38.6,30.10,North,355,0.0,0.0,78,0.04,,,0.04,WSDL version 420,2013-03-31 06:00:00,
2013-03-31 02:05:00,45.5,39.1,30.10,North,8,1.2,2.7,78,0.08,,,0.08,WSDL version 420,2013-03-31 06:05:00,
2013-03-31 02:10:00,45.3,38.9,30.10,West,270,0.0,2.7,79,0.08,,,0.08,WSDL version 420,2013-03-31 06:10:00,
2013-03-31 02:15:00,45.5,39.7,30.09,ENE,59,1.8,2.9,82,0.08,,,0.08,WSDL version 420,2013-03-31 06:15:00,
2013-03-31 02:20:00,45.5,40.4,30.09,NW,318,0.6,2.9,82,0.04,,,0.08,WSDL version 420,2013-03-31 06:20:00,
2013-03-31 02:25:00,45.5,40.1,30.09,ESE,113,0.0,2.9,81,0.04,,,0.08,WSDL version 420,2013-03-31 06:25:00,
2013-03-31 02:30:00,45.2,40.0,30.09,NE,42,1.5,2.9,82,0.08,,,0.12,WSDL version 420,2013-03-31 06:30:00,
2013-03-31 02:35:00,45.1,40.0,30.06,NNE,28,0.7,2.9,82,0.08,,,0.12,WSDL version 420,2013-03-31 06:35:00,
2013-03-31 02:40:00,45.0,40.2,30.06,WNW,298,0.6,2.5,83,0.08,,,0.12,WSDL version 420,2013-03-31 06:40:00,
2013-03-31 02:45:00,44.9,40.3,30.06,ESE,113,1.5,2.5,84,0.08,,,0.12,WSDL version 420,2013-03-31 06:45:00,
2013-03-31 02:50:00,44.8,40.1,30.06,NNE,14,0.0,2.5,83,0.08,,,0.12,WSDL version 420,2013-03-31 06:50:00,
2013-03-31 02:55:00,44.8,40.5,30.06,East,100,0.5,1.6,86,0.08,,,0.12,WSDL version 420,2013-03-31 06:55:00,
2013-03-31 03:00:00,45.0,40.9,30.06,NE,50,1.0,3.4,86,0.08,,,0.12,WSDL version 420,2013-03-31 07:00:00,
2013-03-31 03:05:00,45.0,40.9,30.03,SSW,203,1.7,3.6,86,0.04,,,0.12,WSDL version 420,2013-03-31 07:05:00,
2013-03-31 03:10:00,45.7,42.5,30.03,North,360,1.7,3.6,90,0.04,,,0.12,WSDL version 420,2013-03-31 07:10:00,
2013-03-31 03:15:00,46.5,44.0,30.02,NNE,13,1.3,4.3,91,0.04,,,0.12,WSDL version 420,2013-03-31 07:15:00,
2013-03-31 03:20:00,46.5,43.9,30.02,ENE,58,3.0,4.9,90,0.04,,,0.12,WSDL version 420,2013-03-31 07:20:00,
2013-03-31 03:25:00,46.2,43.3,30.03,East,96,2.3,4.9,89,0.04,,,0.12,WSDL version 420,2013-03-31 07:25:00,
2013-03-31 03:30:00,45.4,42.0,30.03,NE,39,0.0,3.6,88,0.00,,,0.12,WSDL version 420,2013-03-31 07:30:00,
2013-03-31 03:35:00,45.1,41.5,30.03,East,83,0.0,3.6,87,0.00,,,0.12,WSDL version 420,2013-03-31 07:35:00,
2013-03-31 03:40:00,45.0,41.4,30.03,NNW,338,0.0,2.5,88,0.00,,,0.12,WSDL version 420,2013-03-31 07:40:00,
2013-03-31 03:45:00,45.0,41.5,30.03,South,185,0.0,2.2,87,0.00,,,0.12,WSDL version 420,2013-03-31 07:45:00,
2013-03-31 03:50:00,45.0,41.2,30.03,SSW,208,0.0,0.0,87,0.00,,,0.12,WSDL version 420,2013-03-31 07:50:00,
2013-03-31 03:55:00,45.0,41.3,30.03,SSW,210,0.0,0.0,87,0.00,,,0.12,WSDL version 420,2013-03-31 07:55:00,
2013-03-31 04:00:00,44.9,41.1,30.03,SSE,152,0.0,0.0,87,0.00,,,0.12,WSDL version 420,2013-03-31 08:00:00,
2013-03-31 04:05:00,44.8,41.1,30.03,SE,140,0.0,0.0,87,0.00,,,0.12,WSDL version 420,2013-03-31 08:05:00,
2013-03-31 04:10:00,44.8,41.2,30.03,NE,51,0.0,0.0,87,0.00,,,0.12,WSDL version 420,2013-03-31 08:10:00,
2013-03-31 04:15:00,44.9,41.4,30.03,SSE,148,0.0,0.0,88,0.00,,,0.12,WSDL version 420,2013-03-31 08:15:00,
2013-03-31 04:20:00,45.0,41.6,30.03,SE,138,0.0,0.0,88,0.00,,,0.12,WSDL version 420,2013-03-31 08:20:00,
2013-03-31 04:25:00,45.0,41.6,30.03,SE,135,0.0,0.0,88,0.04,,,0.16,WSDL version 420,2013-03-31 08:25:00,
2013-03-31 04:30:00,45.0,41.9,30.03,NNW,341,0.0,0.0,89,0.04,,,0.16,WSDL version 420,2013-03-31 08:30:00,
2013-03-31 04:35:00,45.1,42.1,29.99,NNW,338,0.0,0.0,89,0.04,,,0.16,WSDL version 420,2013-03-31 08:35:00,
2013-03-31 04:40:00,45.1,42.0,29.99,East,95,0.0,0.0,88,0.04,,,0.16,WSDL version 420,2013-03-31 08:40:00,
2013-03-31 04:45:00,45.1,41.7,30.00,ENE,68,0.0,0.0,88,0.04,,,0.16,WSDL version 420,2013-03-31 08:45:00,
2013-03-31 04:50:00,45.2,41.8,30.00,North,357,0.0,0.0,88,0.04,,,0.16,WSDL version 420,2013-03-31 08:50:00,
2013-03-31 04:55:00,45.3,42.2,30.00,NNW,348,0.0,0.0,89,0.04,,,0.16,WSDL version 420,2013-03-31 08:55:00,
2013-03-31 05:00:00,45.5,42.4,30.00,ENE,68,0.0,2.2,89,0.04,,,0.16,WSDL version 420,2013-03-31 09:00:00,
2013-03-31 05:05:00,45.5,42.4,30.00,NW,318,0.0,2.2,89,0.04,,,0.16,WSDL version 420,2013-03-31 09:05:00,
2013-03-31 05:10:00,45.5,42.4,30.00,ENE,68,0.0,0.0,89,0.04,,,0.16,WSDL version 420,2013-03-31 09:10:00,
2013-03-31 05:15:00,45.5,42.5,30.00,NNW,346,0.4,2.0,89,0.04,,,0.16,WSDL version 420,2013-03-31 09:15:00,
2013-03-31 05:20:00,45.5,42.7,30.00,SSE,148,0.4,2.0,90,0.04,,,0.16,WSDL version 420,2013-03-31 09:20:00,
2013-03-31 05:25:00,45.5,42.7,30.00,East,100,0.6,2.7,90,0.00,,,0.16,WSDL version 420,2013-03-31 09:25:00,
2013-03-31 05:30:00,45.5,42.7,30.00,North,355,0.0,2.7,90,0.00,,,0.16,WSDL version 420,2013-03-31 09:30:00,
2013-03-31 05:35:00,45.5,42.7,30.00,ESE,113,0.4,1.3,90,0.00,,,0.16,WSDL version 420,2013-03-31 09:35:00,
2013-03-31 05:40:00,45.5,42.8,30.00,ENE,68,0.0,1.3,90,0.00,,,0.16,WSDL version 420,2013-03-31 09:40:00,
2013-03-31 05:45:00,45.5,42.7,30.00,East,90,0.0,0.0,90,0.00,,,0.16,WSDL version 420,2013-03-31 09:45:00,
2013-03-31 05:50:00,45.5,42.7,30.00,ENE,68,0.0,0.0,90,0.00,,,0.16,WSDL version 420,2013-03-31 09:50:00,
2013-03-31 05:55:00,45.5,42.7,30.00,East,79,0.0,0.0,90,0.00,,,0.16,WSDL version 420,2013-03-31 09:55:00,
2013-03-31 06:00:00,45.5,43.1,30.00,SW,235,0.0,3.4,92,0.00,,,0.16,WSDL version 420,2013-03-31 10:00:00,
2013-03-31 06:05:00,45.5,43.4,30.00,East,90,0.0,3.4,92,0.00,,,0.16,WSDL version 420,2013-03-31 10:05:00,
2013-03-31 06:10:00,45.5,43.4,30.00,ESE,113,0.0,0.0,92,0.04,,,0.20,WSDL version 420,2013-03-31 10:10:00,
2013-03-31 06:15:00,45.6,43.4,30.00,WNW,293,0.0,0.0,92,0.04,,,0.20,WSDL version 420,2013-03-31 10:15:00,
2013-03-31 06:20:00,45.6,43.5,30.00,ENE,65,0.0,0.0,92,0.04,,,0.20,WSDL version 420,2013-03-31 10:20:00,
2013-03-31 06:25:00,45.7,43.6,30.00,East,90,0.0,0.0,92,0.04,,,0.20,WSDL version 420,2013-03-31 10:25:00,
2013-03-31 06:30:00,45.7,43.6,30.00,East,100,0.0,0.0,92,0.04,,,0.20,WSDL version 420,2013-03-31 10:30:00,
2013-03-31 06:35:00,45.7,43.6,30.00,NE,56,0.0,0.0,92,0.04,,,0.20,WSDL version 420,2013-03-31 10:35:00,
2013-03-31 06:40:00,45.7,43.6,30.00,ESE,113,0.5,2.0,92,0.04,,,0.20,WSDL version 420,2013-03-31 10:40:00,
2013-03-31 06:45:00,45.7,43.6,30.00,West,281,0.0,2.0,92,0.04,,,0.20,WSDL version 420,2013-03-31 10:45:00,
2013-03-31 06:50:00,45.7,43.6,30.00,SSE,153,0.1,2.0,92,0.04,,,0.20,WSDL version 420,2013-03-31 10:50:00,
2013-03-31 06:55:00,45.7,43.6,30.00,WNW,293,0.0,2.0,92,0.04,,,0.20,WSDL version 420,2013-03-31 10:55:00,
2013-03-31 07:00:00,45.7,43.6,30.00,WNW,293,0.0,0.0,92,0.04,,,0.20,WSDL version 420,2013-03-31 11:00:00,
2013-03-31 07:05:00,45.9,43.9,29.97,South,170,0.0,0.0,93,0.04,,,0.20,WSDL version 420,2013-03-31 11:05:00,
2013-03-31 07:10:00,45.8,43.8,29.97,ENE,68,0.0,0.0,92,0.00,,,0.20,WSDL version 420,2013-03-31 11:10:00,
2013-03-31 07:15:00,45.9,43.7,29.97,SE,130,0.0,0.0,92,0.00,,,0.20,WSDL version 420,2013-03-31 11:15:00,
2013-03-31 07:20:00,45.9,43.7,29.97,ENE,62,0.0,0.0,92,0.00,,,0.20,WSDL version 420,2013-03-31 11:20:00,
2013-03-31 07:25:00,45.9,43.7,29.97,NE,38,0.0,2.7,92,0.00,,,0.20,WSDL version 420,2013-03-31 11:25:00,
2013-03-31 07:30:00,45.9,43.7,29.97,ESE,118,0.0,2.7,92,0.00,,,0.20,WSDL version 420,2013-03-31 11:30:00,
2013-03-31 07:35:00,45.9,44.0,29.97,NW,305,0.0,2.0,93,0.00,,,0.20,WSDL version 420,2013-03-31 11:35:00,
2013-03-31 07:40:00,46.0,44.2,29.97,SSW,203,0.0,2.7,93,0.00,,,0.20,WSDL version 420,2013-03-31 11:40:00,
2013-03-31 07:45:00,46.0,44.2,29.97,ESE,105,1.0,2.7,93,0.00,,,0.20,WSDL version 420,2013-03-31 11:45:00,
2013-03-31 07:50:00,46.3,44.5,29.97,SSE,158,0.0,1.6,93,0.00,,,0.20,WSDL version 420,2013-03-31 11:50:00,
2013-03-31 07:55:00,46.6,44.8,29.97,SSE,158,0.0,0.9,93,0.00,,,0.20,WSDL version 420,2013-03-31 11:55:00,
2013-03-31 08:00:00,46.8,45.3,29.97,North,354,0.0,2.9,94,0.00,,,0.20,WSDL version 420,2013-03-31 12:00:00,
2013-03-31 08:05:00,46.8,45.3,29.97,SE,132,0.0,2.9,94,0.00,,,0.20,WSDL version 420,2013-03-31 12:05:00,
2013-03-31 08:10:00,47.1,45.6,29.97,West,265,0.0,0.0,94,0.00,,,0.20,WSDL version 420,2013-03-31 12:10:00,
2013-03-31 08:15:00,47.2,45.7,29.97,West,270,0.0,0.0,94,0.00,,,0.20,WSDL version 420,2013-03-31 12:15:00,
2013-03-31 08:20:00,47.4,45.8,29.97,WSW,245,0.0,2.7,94,0.00,,,0.20,WSDL version 420,2013-03-31 12:20:00,
2013-03-31 08:25:00,47.7,46.4,29.97,North,354,0.0,2.7,96,0.00,,,0.20,WSDL version 420,2013-03-31 12:25:00,
2013-03-31 08:30:00,47.8,46.6,29.97,SSW,205,0.0,2.2,96,0.00,,,0.20,WSDL version 420,2013-03-31 12:30:00,
2013-03-31 08:35:00,47.8,46.8,29.97,WNW,293,0.0,0.0,97,0.00,,,0.20,WSDL version 420,2013-03-31 12:35:00,
2013-03-31 08:40:00,48.0,47.0,29.97,SSE,149,0.0,1.3,96,0.00,,,0.20,WSDL version 420,2013-03-31 12:40:00,
2013-03-31 08:45:00,48.0,46.8,29.97,ENE,68,0.0,1.3,96,0.00,,,0.20,WSDL version 420,2013-03-31 12:45:00,
2013-03-31 08:50:00,48.1,46.8,29.97,ESE,110,0.0,1.3,94,0.00,,,0.20,WSDL version 420,2013-03-31 12:50:00,
2013-03-31 08:55:00,48.2,46.7,29.97,ESE,104,1.0,2.2,94,0.00,,,0.20,WSDL version 420,2013-03-31 12:55:00,
2013-03-31 09:00:00,48.2,46.7,29.97,SSE,155,1.1,2.2,94,0.00,,,0.20,WSDL version 420,2013-03-31 13:00:00,
2013-03-31 09:05:00,48.4,46.8,29.97,North,360,0.0,3.4,94,0.00,,,0.20,WSDL version 420,2013-03-31 13:05:00,
2013-03-31 09:10:00,48.4,46.9,29.97,SSW,195,0.7,3.4,94,0.00,,,0.20,WSDL version 420,2013-03-31 13:10:00,
2013-03-31 09:15:00,48.6,47.1,29.97,SE,141,1.5,4.0,96,0.00,,,0.20,WSDL version 420,2013-03-31 13:15:00,
2013-03-31 09:20:00,48.6,47.2,30.01,SE,125,0.0,4.0,94,0.00,,,0.20,WSDL version 420,2013-03-31 13:20:00,
2013-03-31 09:25:00,48.7,47.5,30.01,SE,127,2.3,4.0,96,0.00,,,0.20,WSDL version 420,2013-03-31 13:25:00,
2013-03-31 09:30:00,48.7,47.3,30.01,SE,138,2.2,4.0,94,0.00,,,0.20,WSDL version 420,2013-03-31 13:30:00,
2013-03-31 09:35:00,48.8,47.4,29.97,East,88,0.6,3.8,96,0.00,,,0.20,WSDL version 420,2013-03-31 13:35:00,
2013-03-31 09:40:00,48.9,47.7,29.97,SE,127,0.0,2.7,96,0.00,,,0.20,WSDL version 420,2013-03-31 13:40:00,
2013-03-31 09:45:00,49.0,47.6,29.98,ESE,115,0.7,2.5,94,0.00,,,0.20,WSDL version 420,2013-03-31 13:45:00,
2013-03-31 09:50:00,49.1,47.6,30.01,ESE,118,2.5,4.3,94,0.00,,,0.20,WSDL version 420,2013-03-31 13:50:00,
2013-03-31 09:55:00,49.1,47.9,30.01,SE,130,3.3,6.3,96,0.00,,,0.20,WSDL version 420,2013-03-31 13:55:00,
2013-03-31 10:00:00,49.1,47.9,30.01,North,360,1.8,6.3,96,0.00,,,0.20,WSDL version 420,2013-03-31 14:00:00,
2013-03-31 10:05:00,49.2,48.0,30.01,ESE,113,1.4,3.6,96,0.00,,,0.20,WSDL version 420,2013-03-31 14:05:00,
2013-03-31 10:10:00,49.3,48.1,30.01,North,3,1.4,3.6,96,0.00,,,0.20,WSDL version 420,2013-03-31 14:10:00,
2013-03-31 10:20:00,49.9,48.8,29.98,North,5,0.8,5.8,96,0.00,,,0.20,WSDL version 420,2013-03-31 14:20:00,
2013-03-31 10:25:00,50.2,49.0,29.97,South,188,0.4,5.8,96,0.00,,,0.20,WSDL version 420,2013-03-31 14:25:00,
2013-03-31 10:30:00,50.4,49.1,29.98,NE,48,0.7,4.7,96,0.00,,,0.20,WSDL version 420,2013-03-31 14:30:00,
2013-03-31 10:35:00,50.4,49.2,29.97,South,175,1.9,4.7,96,0.00,,,0.20,WSDL version 420,2013-03-31 14:35:00,
2013-03-31 10:40:00,50.5,49.0,29.97,SE,129,0.9,4.3,94,0.00,,,0.20,WSDL version 420,2013-03-31 14:40:00,
2013-03-31 10:45:00,50.4,48.9,29.97,South,183,2.4,3.8,94,0.00,,,0.20,WSDL version 420,2013-03-31 14:45:00,
2013-03-31 10:50:00,50.5,48.6,29.98,SE,132,1.5,3.8,93,0.00,,,0.20,WSDL version 420,2013-03-31 14:50:00,
2013-03-31 10:55:00,50.9,49.1,29.97,WSW,255,0.1,4.3,94,0.00,,,0.20,WSDL version 420,2013-03-31 14:55:00,
2013-03-31 11:00:00,51.6,49.7,29.97,NW,321,1.3,4.3,93,0.00,,,0.20,WSDL version 420,2013-03-31 15:00:00,
2013-03-31 11:05:00,52.6,50.5,29.97,South,188,2.8,5.6,92,0.00,,,0.20,WSDL version 420,2013-03-31 15:05:00,
2013-03-31 11:10:00,53.5,51.1,29.97,East,80,1.9,8.7,91,0.00,,,0.20,WSDL version 420,2013-03-31 15:10:00,
2013-03-31 11:15:00,54.5,51.3,29.97,NNW,338,0.9,8.7,88,0.00,,,0.20,WSDL version 420,2013-03-31 15:15:00,
2013-03-31 11:25:00,56.9,51.1,29.96,South,180,2.8,6.7,78,0.00,,,0.20,WSDL version 420,2013-03-31 15:25:00,
2013-03-31 11:30:00,56.8,49.6,29.96,SE,143,2.3,6.7,73,0.00,,,0.20,WSDL version 420,2013-03-31 15:30:00,
2013-03-31 11:35:00,57.1,48.9,29.96,SE,132,3.1,7.4,72,0.00,,,0.20,WSDL version 420,2013-03-31 15:35:00,
2013-03-31 11:40:00,57.7,48.9,29.96,ESE,123,1.5,7.4,72,0.00,,,0.20,WSDL version 420,2013-03-31 15:40:00,
2013-03-31 11:45:00,58.5,48.9,29.96,SE,135,1.9,6.0,68,0.00,,,0.20,WSDL version 420,2013-03-31 15:45:00,
2013-03-31 11:50:00,58.6,47.7,29.96,West,278,2.7,6.0,66,0.00,,,0.20,WSDL version 420,2013-03-31 15:50:00,
2013-03-31 11:55:00,59.3,47.9,29.96,SSE,158,1.4,5.8,66,0.00,,,0.20,WSDL version 420,2013-03-31 15:55:00,
2013-03-31 12:00:00,60.0,47.6,29.96,SW,217,2.0,8.1,62,0.00,,,0.20,WSDL version 420,2013-03-31 16:00:00,
2013-03-31 12:05:00,59.9,46.2,29.96,ENE,70,0.9,8.1,62,0.00,,,0.20,WSDL version 420,2013-03-31 16:05:00,
2013-03-31 12:10:00,59.5,45.6,29.96,NNE,16,1.4,7.2,59,0.00,,,0.20,WSDL version 420,2013-03-31 16:10:00,
2013-03-31 12:15:00,60.0,45.8,29.96,WSW,240,2.0,5.4,60,0.00,,,0.20,WSDL version 420,2013-03-31 16:15:00,
2013-03-31 12:20:00,60.3,45.1,29.96,NW,304,2.7,5.6,55,0.00,,,0.20,WSDL version 420,2013-03-31 16:20:00,
2013-03-31 12:25:00,60.3,44.5,29.96,East,93,2.3,5.6,56,0.00,,,0.20,WSDL version 420,2013-03-31 16:25:00,
2013-03-31 12:30:00,60.1,43.3,29.96,SW,233,2.0,5.8,53,0.00,,,0.20,WSDL version 420,2013-03-31 16:30:00,
2013-03-31 12:35:00,60.6,43.6,29.96,SSW,196,0.9,5.8,53,0.00,,,0.20,WSDL version 420,2013-03-31 16:35:00,
2013-03-31 12:40:00,60.9,43.4,29.96,SW,230,3.4,6.5,52,0.00,,,0.20,WSDL version 420,2013-03-31 16:40:00,
2013-03-31 12:45:00,61.3,42.7,29.96,North,8,2.7,6.5,50,0.00,,,0.20,WSDL version 420,2013-03-31 16:45:00,
2013-03-31 12:50:00,62.1,42.8,29.96,SE,133,3.1,6.7,47,0.00,,,0.20,WSDL version 420,2013-03-31 16:50:00,
2013-03-31 12:55:00,62.9,42.3,29.96,SE,145,3.9,8.5,46,0.00,,,0.20,WSDL version 420,2013-03-31 16:55:00,
2013-03-31 13:00:00,63.3,42.6,29.96,SE,124,2.9,8.5,47,0.00,,,0.20,WSDL version 420,2013-03-31 17:00:00,
2013-03-31 13:10:00,63.9,42.7,29.95,NW,315,3.7,10.3,46,0.00,,,0.20,WSDL version 420,2013-03-31 17:10:00,
2013-03-31 13:15:00,64.0,42.9,29.95,SW,219,2.1,10.3,47,0.00,,,0.20,WSDL version 420,2013-03-31 17:15:00,
2013-03-31 13:25:00,65.0,43.1,29.95,ESE,118,2.2,4.9,44,0.00,,,0.20,WSDL version 420,2013-03-31 17:25:00,
2013-03-31 13:30:00,64.4,42.0,29.95,North,3,2.5,5.6,44,0.00,,,0.20,WSDL version 420,2013-03-31 17:30:00,
2013-03-31 13:35:00,63.6,41.4,29.95,South,188,2.4,5.8,45,0.00,,,0.20,WSDL version 420,2013-03-31 17:35:00,
2013-03-31 13:40:00,62.8,41.1,29.96,North,358,2.6,6.3,46,0.00,,,0.20,WSDL version 420,2013-03-31 17:40:00,
2013-03-31 13:45:00,63.6,42.1,29.96,West,276,3.0,7.8,45,0.00,,,0.20,WSDL version 420,2013-03-31 17:45:00,
2013-03-31 13:50:00,63.2,40.9,29.96,NE,51,2.5,7.8,44,0.00,,,0.20,WSDL version 420,2013-03-31 17:50:00,
2013-03-31 13:55:00,62.5,39.7,29.96,ESE,118,2.1,10.3,44,0.00,,,0.20,WSDL version 420,2013-03-31 17:55:00,
2013-03-31 14:00:00,62.0,40.2,29.96,SW,215,0.0,10.3,45,0.00,,,0.20,WSDL version 420,2013-03-31 18:00:00,
2013-03-31 14:05:00,62.1,40.1,29.96,East,93,2.4,5.8,44,0.00,,,0.20,WSDL version 420,2013-03-31 18:05:00,
2013-03-31 14:10:00,62.4,40.2,29.96,NE,37,1.0,6.0,44,0.00,,,0.20,WSDL version 420,2013-03-31 18:10:00,
2013-03-31 14:15:00,62.1,39.8,29.96,East,95,3.5,6.0,43,0.00,,,0.20,WSDL version 420,2013-03-31 18:15:00,
2013-03-31 14:20:00,61.8,39.5,29.96,East,87,1.3,5.4,44,0.00,,,0.20,WSDL version 420,2013-03-31 18:20:00,
2013-03-31 14:25:00,61.9,39.7,29.96,NNE,33,1.3,4.3,44,0.00,,,0.20,WSDL version 420,2013-03-31 18:25:00,
2013-03-31 14:30:00,62.3,39.5,29.96,SE,135,2.7,5.8,43,0.00,,,0.20,WSDL version 420,2013-03-31 18:30:00,
2013-03-31 14:35:00,62.8,39.4,29.93,SSW,203,4.6,6.3,42,0.00,,,0.20,WSDL version 420,2013-03-31 18:35:00,
2013-03-31 14:40:00,63.5,39.1,29.93,NE,40,2.6,6.3,40,0.00,,,0.20,WSDL version 420,2013-03-31 18:40:00,
2013-03-31 14:45:00,63.6,38.8,29.93,NW,325,3.1,7.6,40,0.00,,,0.20,WSDL version 420,2013-03-31 18:45:00,
2013-03-31 14:50:00,63.5,38.9,29.96,South,188,2.3,7.6,41,0.00,,,0.20,WSDL version 420,2013-03-31 18:50:00,
2013-03-31 14:55:00,63.2,38.5,29.96,East,79,2.2,7.4,40,0.00,,,0.20,WSDL version 420,2013-03-31 18:55:00,
2013-03-31 15:00:00,63.0,38.5,29.96,East,90,2.6,7.4,39,0.00,,,0.20,WSDL version 420,2013-03-31 19:00:00,
2013-03-31 15:05:00,62.9,38.3,29.96,East,87,2.8,5.4,41,0.00,,,0.20,WSDL version 420,2013-03-31 19:05:00,
2013-03-31 15:10:00,63.4,39.1,29.96,ESE,113,2.8,6.3,42,0.00,,,0.20,WSDL version 420,2013-03-31 19:10:00,
2013-03-31 15:15:00,63.8,39.9,29.96,ESE,113,1.5,6.3,42,0.00,,,0.20,WSDL version 420,2013-03-31 19:15:00,
2013-03-31 15:20:00,63.6,37.9,29.92,ENE,76,3.3,7.2,39,0.00,,,0.20,WSDL version 420,2013-03-31 19:20:00,
2013-03-31 15:25:00,63.6,38.6,29.92,SW,233,3.7,7.2,39,0.00,,,0.20,WSDL version 420,2013-03-31 19:25:00,
2013-03-31 15:30:00,63.5,37.7,29.93,East,90,4.4,5.8,38,0.00,,,0.20,WSDL version 420,2013-03-31 19:30:00,
2013-03-31 15:35:00,63.5,38.1,29.93,WSW,243,4.3,6.0,39,0.00,,,0.20,WSDL version 420,2013-03-31 19:35:00,
2013-03-31 15:40:00,63.4,38.3,29.93,ESE,115,3.7,6.0,39,0.00,,,0.20,WSDL version 420,2013-03-31 19:40:00,
2013-03-31 15:45:00,63.5,38.1,29.93,East,93,4.1,10.1,38,0.00,,,0.20,WSDL version 420,2013-03-31 19:45:00,
2013-03-31 15:50:00,63.2,37.7,29.93,ESE,113,2.5,10.1,39,0.00,,,0.20,WSDL version 420,2013-03-31 19:50:00,
2013-03-31 15:55:00,63.0,37.9,29.93,East,96,2.3,4.3,40,0.00,,,0.20,WSDL version 420,2013-03-31 19:55:00,
2013-03-31 16:05:00,62.1,37.8,29.93,East,79,2.1,6.5,40,0.00,,,0.20,WSDL version 420,2013-03-31 20:05:00,
2013-03-31 16:10:00,61.5,37.4,29.93,SSE,148,1.4,4.9,42,0.00,,,0.20,WSDL version 420,2013-03-31 20:10:00,
2013-03-31 16:15:00,61.0,37.8,29.93,ESE,115,2.9,4.9,42,0.00,,,0.20,WSDL version 420,2013-03-31 20:15:00,
2013-03-31 16:20:00,60.7,37.9,29.93,ESE,113,3.4,4.7,44,0.00,,,0.20,WSDL version 420,2013-03-31 20:20:00,
2013-03-31 16:25:00,60.3,38.3,29.93,ENE,65,0.0,4.5,44,0.00,,,0.20,WSDL version 420,2013-03-31 20:25:00,
2013-03-31 16:35:00,59.9,38.6,29.93,North,3,0.3,3.8,45,0.00,,,0.20,WSDL version 420,2013-03-31 20:35:00,
2013-03-31 16:40:00,59.7,38.4,29.93,ESE,107,2.9,4.9,45,0.00,,,0.20,WSDL version 420,2013-03-31 20:40:00,
2013-03-31 16:45:00,59.4,38.4,29.93,East,101,1.3,4.9,47,0.00,,,0.20,WSDL version 420,2013-03-31 20:45:00,
2013-03-31 16:55:00,58.4,41.2,29.93,West,268,1.2,3.8,54,0.05,,,0.25,WSDL version 420,2013-03-31 20:55:00,
2013-03-31 17:00:00,57.2,41.8,29.93,South,183,2.3,3.8,58,0.05,,,0.25,WSDL version 420,2013-03-31 21:00:00,
2013-03-31 17:10:00,55.5,43.2,29.97,SE,140,1.7,5.4,64,0.05,,,0.25,WSDL version 420,2013-03-31 21:10:00,
2013-03-31 17:15:00,54.9,43.3,29.97,ESE,115,0.0,4.0,63,0.05,,,0.25,WSDL version 420,2013-03-31 21:15:00,
2013-03-31 17:20:00,54.6,42.8,29.97,ENE,68,0.0,3.6,65,0.05,,,0.25,WSDL version 420,2013-03-31 21:20:00,
2013-03-31 17:30:00,54.4,44.6,29.97,NNW,345,0.0,2.0,68,0.05,,,0.25,WSDL version 420,2013-03-31 21:30:00,
2013-03-31 17:35:00,54.2,44.5,29.94,WSW,253,0.0,0.0,70,0.05,,,0.25,WSDL version 420,2013-03-31 21:35:00,
2013-03-31 17:40:00,54.3,45.2,29.94,SW,217,0.6,2.0,74,0.05,,,0.25,WSDL version 420,2013-03-31 21:40:00,
2013-03-31 17:45:00,54.5,46.5,29.94,WSW,243,0.5,2.2,75,0.05,,,0.25,WSDL version 420,2013-03-31 21:45:00,
2013-03-31 17:50:00,54.3,46.5,29.94,SSE,164,0.0,2.2,75,0.09,,,0.29,WSDL version 420,2013-03-31 21:50:00,
2013-03-31 17:55:00,54.1,46.3,29.94,SW,228,0.0,1.3,76,0.04,,,0.29,WSDL version 420,2013-03-31 21:55:00,
2013-03-31 18:00:00,54.0,46.2,29.94,SW,233,0.0,3.4,75,0.04,,,0.29,WSDL version 420,2013-03-31 22:00:00,
2013-03-31 18:10:00,54.2,46.7,29.94,West,273,2.1,3.6,75,0.04,,,0.29,WSDL version 420,2013-03-31 22:10:00,
2013-03-31 18:15:00,54.2,46.4,29.94,SW,231,1.3,3.8,75,0.04,,,0.29,WSDL version 420,2013-03-31 22:15:00,
2013-03-31 18:20:00,54.1,46.3,29.94,West,265,0.1,3.8,75,0.04,,,0.29,WSDL version 420,2013-03-31 22:20:00,
2013-03-31 18:25:00,54.1,46.6,29.94,SSE,152,0.4,4.0,76,0.04,,,0.29,WSDL version 420,2013-03-31 22:25:00,
2013-03-31 18:30:00,53.8,46.1,29.94,WSW,243,1.8,4.7,76,0.04,,,0.29,WSDL version 420,2013-03-31 22:30:00,
2013-03-31 18:35:00,53.7,46.2,29.97,SW,222,2.1,4.7,76,0.04,,,0.29,WSDL version 420,2013-03-31 22:35:00,
2013-03-31 18:45:00,53.3,46.0,29.97,South,175,0.7,3.1,76,0.04,,,0.29,WSDL version 420,2013-03-31 22:45:00,
2013-03-31 18:50:00,53.1,46.6,29.97,South,174,0.3,3.1,80,0.00,,,0.29,WSDL version 420,2013-03-31 22:50:00,
2013-03-31 18:55:00,52.9,46.9,29.97,WSW,253,0.5,2.9,79,0.00,,,0.29,WSDL version 420,2013-03-31 22:55:00,
2013-03-31 19:00:00,53.0,46.5,29.97,South,188,0.6,2.5,79,0.00,,,0.29,WSDL version 420,2013-03-31 23:00:00,
2013-03-31 19:05:00,52.9,46.4,29.97,West,267,0.2,2.5,78,0.00,,,0.29,WSDL version 420,2013-03-31 23:05:00,
2013-03-31 19:10:00,52.7,46.5,29.97,SSW,203,0.4,2.7,81,0.00,,,0.29,WSDL version 420,2013-03-31 23:10:00,
2013-03-31 19:20:00,52.4,47.0,29.94,SSE,168,0.4,3.6,81,0.00,,,0.29,WSDL version 420,2013-03-31 23:20:00,
2013-03-31 19:25:00,52.3,46.1,29.94,ESE,107,0.0,3.6,79,0.00,,,0.29,WSDL version 420,2013-03-31 23:25:00,
2013-03-31 19:30:00,52.2,45.9,29.94,SE,143,0.0,2.2,79,0.00,,,0.29,WSDL version 420,2013-03-31 23:30:00,
2013-03-31 19:35:00,52.0,46.0,29.94,WSW,256,0.0,0.0,80,0.00,,,0.29,WSDL version 420,2013-03-31 23:35:00,
2013-03-31 19:40:00,51.9,46.1,29.94,NW,312,0.0,0.0,81,0.00,,,0.29,WSDL version 420,2013-03-31 23:40:00,
2013-03-31 19:45:00,51.7,46.0,29.94,SE,135,0.0,0.9,81,0.00,,,0.29,WSDL version 420,2013-03-31 23:45:00,
2013-03-31 19:50:00,51.6,46.3,29.94,WSW,250,0.0,1.3,82,0.00,,,0.29,WSDL version 420,2013-03-31 23:50:00,
2013-03-31 19:55:00,51.4,46.1,29.94,WNW,293,0.8,2.7,81,0.00,,,0.29,WSDL version 420,2013-03-31 23:55:00,
2013-03-31 20:00:00,51.1,45.6,29.94,SW,233,0.5,4.0,82,0.00,,,0.29,WSDL version 420,2013-04-01 00:00:00,
2013-03-31 20:05:00,50.9,45.5,29.94,SSW,196,0.5,4.0,82,0.00,,,0.29,WSDL version 420,2013-04-01 00:05:00,
2013-03-31 20:10:00,51.1,46.4,29.94,WNW,283,0.7,2.5,83,0.00,,,0.29,WSDL version 420,2013-04-01 00:10:00,
2013-03-31 20:15:00,50.9,45.9,29.94,SW,230,1.0,2.5,83,0.00,,,0.29,WSDL version 420,2013-04-01 00:15:00,
2013-03-31 20:20:00,50.8,45.9,29.94,NW,323,0.0,2.7,84,0.00,,,0.29,WSDL version 420,2013-04-01 00:20:00,
2013-03-31 20:25:00,50.8,46.2,29.94,SW,235,0.5,2.7,83,0.00,,,0.29,WSDL version 420,2013-04-01 00:25:00,
2013-03-31 20:30:00,50.8,46.0,29.94,WNW,284,0.0,2.5,84,0.00,,,0.29,WSDL version 420,2013-04-01 00:30:00,
2013-03-31 20:40:00,50.7,46.0,29.94,NW,304,0.6,2.9,84,0.00,,,0.29,WSDL version 420,2013-04-01 00:40:00,
2013-03-31 20:45:00,50.6,45.8,29.94,WNW,301,0.0,2.9,83,0.00,,,0.29,WSDL version 420,2013-04-01 00:45:00,
2013-03-31 20:50:00,50.5,45.7,29.94,SSE,160,0.0,0.0,83,0.00,,,0.29,WSDL version 420,2013-04-01 00:50:00,
2013-03-31 20:55:00,50.4,45.6,29.94,West,270,0.0,0.0,83,0.00,,,0.29,WSDL version 420,2013-04-01 00:55:00,
2013-03-31 21:00:00,50.4,45.5,29.94,West,270,0.6,2.0,83,0.00,,,0.29,WSDL version 420,2013-04-01 01:00:00,
2013-03-31 21:05:00,50.2,45.4,29.94,West,270,0.0,2.0,83,0.00,,,0.29,WSDL version 420,2013-04-01 01:05:00,
2013-03-31 21:10:00,50.2,45.5,29.94,West,270,0.0,0.0,84,0.00,,,0.29,WSDL version 420,2013-04-01 01:10:00,
2013-03-31 21:15:00,50.2,45.7,29.94,West,270,0.0,0.0,84,0.00,,,0.29,WSDL version 420,2013-04-01 01:15:00,
2013-03-31 21:25:00,50.0,45.7,29.94,WNW,293,0.0,0.0,86,0.00,,,0.29,WSDL version 420,2013-04-01 01:25:00,
2013-03-31 21:30:00,49.7,45.6,29.94,West,267,0.0,0.9,86,0.00,,,0.29,WSDL version 420,2013-04-01 01:30:00,
2013-03-31 21:35:00,49.5,45.1,29.94,NW,323,0.0,2.0,86,0.00,,,0.29,WSDL version 420,2013-04-01 01:35:00,
2013-03-31 21:40:00,49.2,45.0,29.94,WNW,293,1.7,2.7,84,0.00,,,0.29,WSDL version 420,2013-04-01 01:40:00,
2013-03-31 21:45:00,49.1,44.6,29.94,West,263,0.0,2.7,84,0.00,,,0.29,WSDL version 420,2013-04-01 01:45:00,
2013-03-31 21:50:00,49.1,44.9,29.97,West,270,0.0,0.0,86,0.00,,,0.29,WSDL version 420,2013-04-01 01:50:00,
2013-03-31 21:55:00,49.2,45.1,29.97,West,270,0.0,0.0,86,0.00,,,0.29,WSDL version 420,2013-04-01 01:55:00,
2013-03-31 22:05:00,49.4,45.6,29.94,North,349,0.0,0.0,87,0.00,,,0.29,WSDL version 420,2013-04-01 02:05:00,
2013-03-31 22:10:00,49.5,45.7,29.94,West,275,0.0,0.0,87,0.00,,,0.29,WSDL version 420,2013-04-01 02:10:00,
2013-03-31 22:15:00,49.4,45.7,29.94,NNW,338,0.0,0.0,88,0.00,,,0.29,WSDL version 420,2013-04-01 02:15:00,
2013-03-31 22:20:00,49.5,46.0,29.97,West,270,0.0,0.0,88,0.00,,,0.29,WSDL version 420,2013-04-01 02:20:00,
2013-03-31 22:25:00,49.5,45.8,29.97,West,270,0.0,0.0,87,0.00,,,0.29,WSDL version 420,2013-04-01 02:25:00,
2013-03-31 22:30:00,49.5,45.7,29.97,NW,312,0.0,0.0,87,0.00,,,0.29,WSDL version 420,2013-04-01 02:30:00,
2013-03-31 22:35:00,49.6,45.9,29.97,NW,312,0.0,0.0,88,0.00,,,0.29,WSDL version 420,2013-04-01 02:35:00,
2013-03-31 22:40:00,49.9,46.4,29.97,WSW,248,0.0,1.3,88,0.00,,,0.29,WSDL version 420,2013-04-01 02:40:00,
2013-03-31 22:45:00,50.0,46.7,29.97,SW,233,0.0,1.3,89,0.00,,,0.29,WSDL version 420,2013-04-01 02:45:00,
2013-03-31 22:50:00,50.2,47.0,29.97,WNW,293,0.0,0.9,89,0.00,,,0.29,WSDL version 420,2013-04-01 02:50:00,
2013-03-31 22:55:00,50.2,47.0,29.97,SSW,200,0.0,0.0,88,0.00,,,0.29,WSDL version 420,2013-04-01 02:55:00,
2013-03-31 23:05:00,50.3,47.3,29.96,South,186,0.0,1.1,90,0.00,,,0.29,WSDL version 420,2013-04-01 03:05:00,
2013-03-31 23:10:00,50.4,47.6,29.96,SSE,165,0.1,2.0,90,0.00,,,0.29,WSDL version 420,2013-04-01 03:10:00,
2013-03-31 23:15:00,50.4,47.6,29.96,WSW,257,0.0,2.0,90,0.00,,,0.29,WSDL version 420,2013-04-01 03:15:00,
2013-03-31 23:20:00,50.5,47.8,29.96,SE,130,1.8,3.6,91,0.00,,,0.29,WSDL version 420,2013-04-01 03:20:00,
2013-03-31 23:25:00,50.5,48.0,29.96,South,180,0.0,3.6,91,0.00,,,0.29,WSDL version 420,2013-04-01 03:25:00,
2013-03-31 23:30:00,50.5,48.0,29.96,ESE,118,0.3,4.0,91,0.00,,,0.29,WSDL version 420,2013-04-01 03:30:00,
2013-03-31 23:35:00,50.6,48.4,29.96,East,85,0.4,4.0,92,0.00,,,0.29,WSDL version 420,2013-04-01 03:35:00,
2013-03-31 23:40:00,50.7,48.5,29.95,SSE,158,0.8,2.7,92,0.00,,,0.29,WSDL version 420,2013-04-01 03:40:00,
2013-03-31 23:45:00,50.7,48.9,29.95,SW,220,0.6,2.7,93,0.00,,,0.29,WSDL version 420,2013-04-01 03:45:00,
2013-03-31 23:50:00,50.7,48.9,29.95,NW,321,0.6,3.6,93,0.00,,,0.29,WSDL version 420,2013-04-01 03:50:00,
2013-03-31 23:55:00,50.7,48.9,29.95,SSW,193,1.5,3.6,93,0.00,,,0.29,WSDL version 420,2013-04-01 03:55:00,